PWSweather.com
Personal Weather Stations
Station Observations
KCTHAMDEN
Dunbar Hill, Hamden, CT 06514

Dunbar HillHamden, CT 06514

Lat: 41.365437, Lon: -72.956532

Elevation: 200

Station Type: Davis Vantage Pro2+

www.hamdenweather.com

High Low Average
Temperature 40.2°F4.6°C 26.7°F-2.9°C 32.6°F0.3°C
Dew Point 25.7°F-3.5°C 14.1°F-9.9°C 18.7°F-7.4°C
Winds 1.1 mph 1.8 kmh Calm Calm Calm SCalm S
Wind Gusts 15.0 mph24.1 kmh -- 1.0 mph1.6 kmh
Humidity 81% 41% 58%
Pressure 29.88 in1011.9 mb 29.56 in1001.0 mb -
Precipitation 0.00 in0.0 mm - -
Hour Temp Dew Point Humidity Winds Wind Gusts Pressure Precip Precip Rate Daily Precip Total
12:00 AM 31.7°F-0.2°C 20.9°F-6.2°C 64% Calm Calm -- 29.58 in1001.7 mb - 0.00 in0.0 mm 0.00 in0.0 mm
12:15 AM 31.1°F-0.5°C 21.1°F-6.1°C 66% Calm Calm -- 29.57 in1001.4 mb - 0.00 in0.0 mm 0.00 in0.0 mm
12:30 AM 30.5°F-0.8°C 21.2°F-6.0°C 68% Calm Calm -- 29.57 in1001.4 mb - 0.00 in0.0 mm 0.00 in0.0 mm
12:45 AM 30.0°F-1.1°C 21.0°F-6.1°C 69% Calm Calm -- 29.57 in1001.4 mb - 0.00 in0.0 mm 0.00 in0.0 mm
01:00 AM 29.5°F-1.4°C 21.2°F-6.0°C 71% Calm Calm -- 29.57 in1001.4 mb - 0.00 in0.0 mm 0.00 in0.0 mm
01:15 AM 29.0°F-1.7°C 21.1°F-6.1°C 72% Calm Calm -- 29.57 in1001.4 mb - 0.00 in0.0 mm 0.00 in0.0 mm
01:30 AM 28.6°F-1.9°C 21.0°F-6.1°C 73% Calm Calm -- 29.57 in1001.4 mb - 0.00 in0.0 mm 0.00 in0.0 mm
01:45 AM 28.3°F-2.1°C 21.1°F-6.1°C 74% Calm Calm -- 29.57 in1001.4 mb - 0.00 in0.0 mm 0.00 in0.0 mm
02:00 AM 28.1°F-2.2°C 20.9°F-6.2°C 74% Calm Calm -- 29.57 in1001.4 mb - 0.00 in0.0 mm 0.00 in0.0 mm
02:15 AM 28.0°F-2.2°C 20.8°F-6.2°C 74% Calm Calm -- 29.57 in1001.4 mb - 0.00 in0.0 mm 0.00 in0.0 mm
02:30 AM 28.2°F-2.1°C 20.7°F-6.3°C 73% Calm Calm -- 29.57 in1001.4 mb - 0.00 in0.0 mm 0.00 in0.0 mm
02:45 AM 28.5°F-1.9°C 20.6°F-6.3°C 72% Calm Calm -- 29.57 in1001.4 mb - 0.00 in0.0 mm 0.00 in0.0 mm
03:00 AM 28.6°F-1.9°C 20.4°F-6.4°C 71% Calm Calm 1.0 mph1.6 kmh 29.57 in1001.4 mb - 0.00 in0.0 mm 0.00 in0.0 mm
03:15 AM 28.6°F-1.9°C 20.4°F-6.4°C 71% Calm Calm -- 29.56 in1001.0 mb - 0.00 in0.0 mm 0.00 in0.0 mm
03:30 AM 28.8°F-1.8°C 20.9°F-6.2°C 72% Calm Calm -- 29.56 in1001.0 mb - 0.00 in0.0 mm 0.00 in0.0 mm
03:45 AM 28.7°F-1.8°C 20.8°F-6.2°C 72% Calm Calm -- 29.56 in1001.0 mb - 0.00 in0.0 mm 0.00 in0.0 mm
04:00 AM 28.6°F-1.9°C 20.7°F-6.3°C 72% Calm Calm -- 29.56 in1001.0 mb - 0.00 in0.0 mm 0.00 in0.0 mm
04:15 AM 28.5°F-1.9°C 20.9°F-6.2°C 73% Calm Calm -- 29.57 in1001.4 mb - 0.00 in0.0 mm 0.00 in0.0 mm
04:30 AM 28.3°F-2.1°C 21.1°F-6.1°C 74% Calm Calm -- 29.57 in1001.4 mb - 0.00 in0.0 mm 0.00 in0.0 mm
04:45 AM 28.1°F-2.2°C 21.2°F-6.0°C 75% Calm Calm -- 29.58 in1001.7 mb - 0.00 in0.0 mm 0.00 in0.0 mm
05:00 AM 27.8°F-2.3°C 21.2°F-6.0°C 76% Calm Calm -- 29.58 in1001.7 mb - 0.00 in0.0 mm 0.00 in0.0 mm
05:15 AM 27.5°F-2.5°C 21.5°F-5.8°C 78% Calm Calm -- 29.59 in1002.0 mb - 0.00 in0.0 mm 0.00 in0.0 mm
05:30 AM 27.2°F-2.7°C 21.2°F-6.0°C 78% Calm Calm -- 29.60 in1002.4 mb - 0.00 in0.0 mm 0.00 in0.0 mm
05:45 AM 26.9°F-2.8°C 21.2°F-6.0°C 79% Calm Calm -- 29.60 in1002.4 mb - 0.00 in0.0 mm 0.00 in0.0 mm
06:00 AM 26.7°F-2.9°C 21.4°F-5.9°C 80% Calm Calm -- 29.60 in1002.4 mb - 0.00 in0.0 mm 0.00 in0.0 mm
06:15 AM 27.1°F-2.7°C 22.0°F-5.6°C 81% Calm Calm -- 29.61 in1002.7 mb - 0.00 in0.0 mm 0.00 in0.0 mm
06:30 AM 27.8°F-2.3°C 22.4°F-5.3°C 80% Calm Calm -- 29.61 in1002.7 mb - 0.00 in0.0 mm 0.00 in0.0 mm
06:45 AM 28.3°F-2.1°C 22.9°F-5.1°C 80% Calm Calm -- 29.62 in1003.0 mb - 0.00 in0.0 mm 0.00 in0.0 mm
07:00 AM 28.5°F-1.9°C 22.8°F-5.1°C 79% Calm Calm -- 29.62 in1003.0 mb - 0.00 in0.0 mm 0.00 in0.0 mm
07:15 AM 28.9°F-1.7°C 23.5°F-4.7°C 80% Calm Calm -- 29.63 in1003.4 mb - 0.00 in0.0 mm 0.00 in0.0 mm
07:30 AM 29.3°F-1.5°C 23.9°F-4.5°C 80% Calm Calm -- 29.63 in1003.4 mb - 0.00 in0.0 mm 0.00 in0.0 mm
07:45 AM 30.0°F-1.1°C 24.6°F-4.1°C 80% Calm Calm -- 29.64 in1003.7 mb - 0.00 in0.0 mm 0.00 in0.0 mm
08:00 AM 30.8°F-0.7°C 25.1°F-3.8°C 79% Calm Calm -- 29.65 in1004.1 mb - 0.00 in0.0 mm 0.00 in0.0 mm
08:15 AM 31.5°F-0.3°C 25.7°F-3.5°C 79% Calm Calm -- 29.66 in1004.4 mb - 0.00 in0.0 mm 0.00 in0.0 mm
08:30 AM 32.7°F0.4°C 25.7°F-3.5°C 75% Calm Calm -- 29.66 in1004.4 mb - 0.00 in0.0 mm 0.00 in0.0 mm
08:45 AM 33.9°F1.1°C 25.2°F-3.8°C 70% Calm Calm -- 29.67 in1004.7 mb - 0.00 in0.0 mm 0.00 in0.0 mm
09:00 AM 35.0°F1.7°C 24.0°F-4.4°C 64% Calm Calm 1.0 mph1.6 kmh 29.67 in1004.7 mb - 0.00 in0.0 mm 0.00 in0.0 mm
09:15 AM 35.7°F2.1°C 23.2°F-4.9°C 60% Calm Calm -- 29.67 in1004.7 mb - 0.00 in0.0 mm 0.00 in0.0 mm
09:30 AM 35.9°F2.2°C 22.1°F-5.5°C 57% Calm Calm 1.0 mph1.6 kmh 29.67 in1004.7 mb - 0.00 in0.0 mm 0.00 in0.0 mm
09:45 AM 36.5°F2.5°C 21.9°F-5.6°C 55% 0.1 mph S0.2 kmh S 1.0 mph1.6 kmh 29.68 in1005.1 mb - 0.00 in0.0 mm 0.00 in0.0 mm
10:00 AM 36.7°F2.6°C 20.7°F-6.3°C 52% 0.3 mph NNE0.5 kmh NNE -- 29.68 in1005.1 mb - 0.00 in0.0 mm 0.00 in0.0 mm
10:15 AM 35.8°F2.1°C 18.5°F-7.5°C 49% 0.9 mph NW1.4 kmh NW 15.0 mph24.1 kmh 29.68 in1005.1 mb - 0.00 in0.0 mm 0.00 in0.0 mm
10:30 AM 36.4°F2.4°C 19.5°F-6.9°C 50% Calm Calm -- 29.68 in1005.1 mb - 0.00 in0.0 mm 0.00 in0.0 mm
10:45 AM 36.6°F2.6°C 19.2°F-7.1°C 49% 0.5 mph WSW0.8 kmh WSW 11.0 mph17.7 kmh 29.69 in1005.4 mb - 0.00 in0.0 mm 0.00 in0.0 mm
11:00 AM 37.4°F3.0°C 20.9°F-6.2°C 51% Calm Calm 1.0 mph1.6 kmh 29.69 in1005.4 mb - 0.00 in0.0 mm 0.00 in0.0 mm
11:15 AM 37.0°F2.8°C 18.6°F-7.4°C 47% Calm Calm -- 29.69 in1005.4 mb - 0.00 in0.0 mm 0.00 in0.0 mm
11:30 AM 36.3°F2.4°C 18.0°F-7.8°C 47% 0.1 mph WSW0.2 kmh WSW 1.0 mph1.6 kmh 29.69 in1005.4 mb - 0.00 in0.0 mm 0.00 in0.0 mm
11:45 AM 37.0°F2.8°C 19.1°F-7.2°C 48% 0.1 mph NE0.2 kmh NE 1.0 mph1.6 kmh 29.70 in1005.8 mb - 0.00 in0.0 mm 0.00 in0.0 mm
12:00 PM 37.5°F3.1°C 18.1°F-7.7°C 45% 1.1 mph WSW1.8 kmh WSW 12.0 mph19.3 kmh 29.69 in1005.4 mb - 0.00 in0.0 mm 0.00 in0.0 mm
12:15 PM 38.0°F3.3°C 18.5°F-7.5°C 45% 0.4 mph WSW0.6 kmh WSW -- 29.70 in1005.8 mb - 0.00 in0.0 mm 0.00 in0.0 mm
12:30 PM 38.6°F3.7°C 17.4°F-8.1°C 42% 0.1 mph NE0.2 kmh NE 1.0 mph1.6 kmh 29.69 in1005.4 mb - 0.00 in0.0 mm 0.00 in0.0 mm
12:45 PM 38.4°F3.6°C 17.8°F-7.9°C 43% Calm Calm -- 29.69 in1005.4 mb - 0.00 in0.0 mm 0.00 in0.0 mm
01:00 PM 39.4°F4.1°C 18.7°F-7.4°C 43% 0.5 mph N0.8 kmh N 5.0 mph8.0 kmh 29.69 in1005.4 mb - 0.00 in0.0 mm 0.00 in0.0 mm
01:15 PM 39.3°F4.1°C 19.7°F-6.8°C 45% 0.1 mph WSW0.2 kmh WSW 3.0 mph4.8 kmh 29.69 in1005.4 mb - 0.00 in0.0 mm 0.00 in0.0 mm
01:30 PM 38.5°F3.6°C 17.4°F-8.1°C 42% 0.1 mph NNE0.2 kmh NNE 2.0 mph3.2 kmh 29.69 in1005.4 mb - 0.00 in0.0 mm 0.00 in0.0 mm
01:45 PM 38.7°F3.7°C 18.6°F-7.4°C 44% 0.1 mph SSW0.2 kmh SSW 1.0 mph1.6 kmh 29.69 in1005.4 mb - 0.00 in0.0 mm 0.00 in0.0 mm
02:00 PM 38.8°F3.8°C 18.7°F-7.4°C 44% 0.1 mph WSW0.2 kmh WSW 1.0 mph1.6 kmh 29.69 in1005.4 mb - 0.00 in0.0 mm 0.00 in0.0 mm
02:15 PM 38.6°F3.7°C 19.1°F-7.2°C 45% 0.1 mph SSE0.2 kmh SSE -- 29.69 in1005.4 mb - 0.00 in0.0 mm 0.00 in0.0 mm
02:30 PM 39.5°F4.2°C 20.4°F-6.4°C 46% 0.4 mph SSW0.6 kmh SSW 8.0 mph12.9 kmh 29.68 in1005.1 mb - 0.00 in0.0 mm 0.00 in0.0 mm
02:45 PM 39.8°F4.3°C 18.5°F-7.5°C 42% 0.1 mph WSW0.2 kmh WSW 1.0 mph1.6 kmh 29.69 in1005.4 mb - 0.00 in0.0 mm 0.00 in0.0 mm
03:00 PM 38.4°F3.6°C 17.8°F-7.9°C 43% 0.3 mph SW0.5 kmh SW 9.0 mph14.5 kmh 29.69 in1005.4 mb - 0.00 in0.0 mm 0.00 in0.0 mm
03:15 PM 40.2°F4.6°C 18.9°F-7.3°C 42% 0.1 mph SW0.2 kmh SW 1.0 mph1.6 kmh 29.69 in1005.4 mb - 0.00 in0.0 mm 0.00 in0.0 mm
03:30 PM 40.1°F4.5°C 19.9°F-6.7°C 44% Calm Calm -- 29.69 in1005.4 mb - 0.00 in0.0 mm 0.00 in0.0 mm
03:45 PM 39.2°F4.0°C 18.6°F-7.4°C 43% 0.3 mph NE0.5 kmh NE 3.0 mph4.8 kmh 29.70 in1005.8 mb - 0.00 in0.0 mm 0.00 in0.0 mm
04:00 PM 38.0°F3.3°C 18.0°F-7.8°C 44% 0.6 mph N1.0 kmh N 6.0 mph9.7 kmh 29.70 in1005.8 mb - 0.00 in0.0 mm 0.00 in0.0 mm
04:15 PM 37.0°F2.8°C 17.6°F-8.0°C 45% 0.3 mph WSW0.5 kmh WSW 2.0 mph3.2 kmh 29.70 in1005.8 mb - 0.00 in0.0 mm 0.00 in0.0 mm
04:30 PM 37.0°F2.8°C 17.6°F-8.0°C 45% Calm Calm 1.0 mph1.6 kmh 29.71 in1006.1 mb - 0.00 in0.0 mm 0.00 in0.0 mm
04:45 PM 36.5°F2.5°C 15.6°F-9.1°C 42% 0.3 mph WSW0.5 kmh WSW 1.0 mph1.6 kmh 29.71 in1006.1 mb - 0.00 in0.0 mm 0.00 in0.0 mm
05:00 PM 37.2°F2.9°C 16.2°F-8.8°C 42% Calm Calm -- 29.72 in1006.4 mb - 0.00 in0.0 mm 0.00 in0.0 mm
05:15 PM 37.7°F3.2°C 16.1°F-8.8°C 41% 0.5 mph WSW0.8 kmh WSW 3.0 mph4.8 kmh 29.72 in1006.4 mb - 0.00 in0.0 mm 0.00 in0.0 mm
05:30 PM 37.1°F2.8°C 16.7°F-8.5°C 43% Calm Calm -- 29.73 in1006.8 mb - 0.00 in0.0 mm 0.00 in0.0 mm
05:45 PM 35.9°F2.2°C 16.6°F-8.6°C 45% Calm Calm -- 29.74 in1007.1 mb - 0.00 in0.0 mm 0.00 in0.0 mm
06:00 PM 35.2°F1.8°C 16.5°F-8.6°C 46% 0.1 mph NE0.2 kmh NE -- 29.75 in1007.5 mb - 0.00 in0.0 mm 0.00 in0.0 mm
06:15 PM 34.8°F1.6°C 15.6°F-9.1°C 45% 0.5 mph WSW0.8 kmh WSW 2.0 mph3.2 kmh 29.75 in1007.5 mb - 0.00 in0.0 mm 0.00 in0.0 mm
06:30 PM 34.4°F1.3°C 15.7°F-9.1°C 46% 0.1 mph N0.2 kmh N -- 29.76 in1007.8 mb - 0.00 in0.0 mm 0.00 in0.0 mm
06:45 PM 33.9°F1.1°C 15.3°F-9.3°C 46% 0.2 mph N0.3 kmh N 2.0 mph3.2 kmh 29.77 in1008.1 mb - 0.00 in0.0 mm 0.00 in0.0 mm
07:00 PM 33.3°F0.7°C 15.2°F-9.3°C 47% 0.1 mph WSW0.2 kmh WSW 1.0 mph1.6 kmh 29.78 in1008.5 mb - 0.00 in0.0 mm 0.00 in0.0 mm
07:15 PM 32.7°F0.4°C 15.2°F-9.3°C 48% 0.1 mph W0.2 kmh W 3.0 mph4.8 kmh 29.80 in1009.1 mb - 0.00 in0.0 mm 0.00 in0.0 mm
07:30 PM 32.2°F0.1°C 14.7°F-9.6°C 48% Calm Calm 1.0 mph1.6 kmh 29.80 in1009.1 mb - 0.00 in0.0 mm 0.00 in0.0 mm
07:45 PM 31.8°F-0.1°C 14.8°F-9.6°C 49% Calm Calm -- 29.81 in1009.5 mb - 0.00 in0.0 mm 0.00 in0.0 mm
08:00 PM 31.5°F-0.3°C 15.0°F-9.4°C 50% 0.4 mph W0.6 kmh W 2.0 mph3.2 kmh 29.82 in1009.8 mb - 0.00 in0.0 mm 0.00 in0.0 mm
08:15 PM 31.4°F-0.3°C 14.9°F-9.5°C 50% Calm Calm -- 29.83 in1010.2 mb - 0.00 in0.0 mm 0.00 in0.0 mm
08:30 PM 31.1°F-0.5°C 15.1°F-9.4°C 51% Calm Calm 2.0 mph3.2 kmh 29.84 in1010.5 mb - 0.00 in0.0 mm 0.00 in0.0 mm
08:45 PM 30.7°F-0.7°C 15.1°F-9.4°C 52% 0.1 mph NE0.2 kmh NE -- 29.84 in1010.5 mb - 0.00 in0.0 mm 0.00 in0.0 mm
09:00 PM 30.4°F-0.9°C 14.9°F-9.5°C 52% 0.1 mph NNW0.2 kmh NNW -- 29.84 in1010.5 mb - 0.00 in0.0 mm 0.00 in0.0 mm
09:15 PM 30.2°F-1.0°C 15.1°F-9.4°C 53% 0.1 mph S0.2 kmh S -- 29.85 in1010.8 mb - 0.00 in0.0 mm 0.00 in0.0 mm
09:30 PM 29.9°F-1.2°C 14.8°F-9.6°C 53% 0.1 mph WSW0.2 kmh WSW 2.0 mph3.2 kmh 29.85 in1010.8 mb - 0.00 in0.0 mm 0.00 in0.0 mm
09:45 PM 29.8°F-1.2°C 14.7°F-9.6°C 53% Calm Calm -- 29.86 in1011.2 mb - 0.00 in0.0 mm 0.00 in0.0 mm
10:00 PM 29.6°F-1.3°C 14.6°F-9.7°C 53% 0.4 mph SW0.6 kmh SW 7.0 mph11.3 kmh 29.86 in1011.2 mb - 0.00 in0.0 mm 0.00 in0.0 mm
10:15 PM 29.5°F-1.4°C 14.5°F-9.7°C 53% Calm Calm -- 29.86 in1011.2 mb - 0.00 in0.0 mm 0.00 in0.0 mm
10:30 PM 29.2°F-1.6°C 14.2°F-9.9°C 53% 0.4 mph SW0.6 kmh SW -- 29.86 in1011.2 mb - 0.00 in0.0 mm 0.00 in0.0 mm
10:45 PM 28.9°F-1.7°C 14.3°F-9.8°C 54% Calm Calm -- 29.86 in1011.2 mb - 0.00 in0.0 mm 0.00 in0.0 mm
11:00 PM 28.8°F-1.8°C 14.6°F-9.7°C 55% Calm Calm -- 29.86 in1011.2 mb - 0.00 in0.0 mm 0.00 in0.0 mm
11:15 PM 28.5°F-1.9°C 14.4°F-9.8°C 55% Calm Calm -- 29.86 in1011.2 mb - 0.00 in0.0 mm 0.00 in0.0 mm
11:30 PM 28.4°F-2.0°C 14.3°F-9.8°C 55% Calm Calm -- 29.87 in1011.5 mb - 0.00 in0.0 mm 0.00 in0.0 mm
11:45 PM 28.2°F-2.1°C 14.1°F-9.9°C 55% Calm Calm -- 29.87 in1011.5 mb - 0.00 in0.0 mm 0.00 in0.0 mm